createdAt,value
2023-03-06T00:01:18.536Z,91.56
2023-03-06T00:11:20.615Z,91.19
2023-03-06T00:21:22.056Z,91.38
2023-03-06T00:31:23.906Z,92.30
2023-03-06T00:41:25.443Z,92.68
2023-03-06T00:51:27.463Z,92.80
2023-03-06T01:01:29.533Z,93.56
2023-03-06T01:11:31.590Z,92.70
2023-03-06T01:21:33.042Z,92.57
2023-03-06T01:31:34.449Z,92.36
2023-03-06T01:41:36.371Z,92.74
2023-03-06T01:51:44.007Z,94.76
2023-03-06T02:01:46.671Z,94.38
2023-03-06T02:11:48.073Z,94.40
2023-03-06T02:21:49.830Z,95.04
2023-03-06T02:31:51.364Z,95.38
2023-03-06T02:41:52.778Z,94.66
2023-03-06T02:51:55.215Z,94.39
2023-03-06T03:01:56.742Z,94.53
2023-03-06T03:11:58.077Z,94.16
2023-03-06T03:21:59.668Z,94.54
2023-03-06T03:32:01.279Z,94.58
2023-03-06T03:42:02.686Z,94.68
2023-03-06T03:52:04.308Z,94.00
2023-03-06T04:02:05.843Z,94.51
2023-03-06T04:12:07.866Z,93.56
2023-03-06T04:22:09.404Z,93.93
2023-03-06T04:32:11.093Z,94.34
2023-03-06T04:42:12.944Z,93.38
2023-03-06T04:52:14.447Z,93.85
2023-03-06T05:02:16.881Z,93.24
2023-03-06T05:12:18.381Z,93.93
2023-03-06T05:22:19.913Z,93.86
2023-03-06T05:32:21.958Z,94.02
2023-03-06T05:42:23.608Z,93.78
2023-03-06T05:52:25.072Z,93.86
2023-03-06T06:02:26.591Z,94.28
2023-03-06T06:12:28.233Z,93.84
2023-03-06T06:22:29.757Z,94.74
2023-03-06T06:32:31.321Z,95.21
2023-03-06T06:42:39.088Z,94.53
2023-03-06T06:52:41.417Z,94.22
2023-03-06T07:02:42.984Z,94.44
2023-03-06T07:12:44.412Z,94.69
2023-03-06T07:22:51.200Z,95.23
2023-03-06T07:32:55.490Z,95.10
2023-03-06T07:43:06.225Z,95.23
2023-03-06T07:53:11.625Z,95.71
2023-03-06T08:03:13.752Z,95.25
2023-03-06T08:13:15.187Z,95.74
2023-03-06T08:23:16.623Z,94.88
2023-03-06T08:33:18.039Z,95.88
2023-03-06T08:43:19.423Z,95.98
2023-03-06T08:53:22.698Z,95.90
2023-03-06T09:03:30.903Z,97.38
2023-03-06T09:13:32.258Z,97.27
2023-03-06T09:23:34.148Z,97.06
2023-03-06T09:33:35.562Z,96.95
2023-03-06T09:43:39.036Z,96.55
2023-03-06T09:53:56.745Z,96.75
2023-03-06T10:04:30.635Z,96.80
2023-03-06T10:14:34.886Z,96.06
2023-03-06T10:24:47.342Z,96.24
2023-03-06T10:34:50.058Z,95.09
2023-03-06T10:45:10.901Z,95.02
2023-03-06T10:55:23.708Z,94.80
2023-03-06T11:05:25.150Z,93.59
2023-03-06T11:15:28.207Z,93.82
2023-03-06T11:25:55.089Z,93.14
2023-03-06T11:36:05.306Z,91.93
2023-03-06T11:46:28.867Z,90.67
2023-03-06T11:57:01.738Z,89.01
2023-03-06T12:07:22.236Z,87.73
2023-03-06T12:17:29.459Z,86.35
2023-03-06T12:27:58.150Z,85.66
2023-03-06T12:38:22.517Z,83.66
2023-03-06T12:48:29.427Z,84.26
2023-03-06T12:58:31.374Z,83.54
2023-03-06T13:08:57.671Z,82.89
2023-03-06T13:19:18.285Z,75.99
2023-03-06T13:29:38.201Z,77.63
2023-03-06T13:39:54.715Z,77.58
2023-03-06T13:49:57.275Z,75.73
2023-03-06T14:00:14.484Z,76.17
2023-03-06T14:10:21.305Z,74.93
2023-03-06T14:20:33.265Z,77.84
2023-03-06T14:30:34.807Z,74.95
2023-03-06T14:40:42.930Z,77.29
2023-03-06T14:50:56.075Z,76.49
2023-03-06T15:01:02.208Z,77.41
2023-03-06T15:11:05.747Z,78.28
2023-03-06T15:21:21.851Z,80.04
2023-03-06T15:31:27.738Z,78.98
2023-03-06T15:41:37.711Z,78.77
2023-03-06T15:51:39.156Z,79.39
2023-03-06T16:01:40.638Z,81.14
2023-03-06T16:11:44.881Z,82.07
2023-03-06T16:21:46.539Z,83.65
2023-03-06T16:31:48.289Z,85.62
2023-03-06T16:41:50.593Z,85.69
2023-03-06T16:51:53.029Z,85.34
2023-03-06T17:01:54.540Z,88.46
2023-03-06T17:11:56.080Z,87.08
2023-03-06T17:21:57.815Z,86.72
2023-03-06T17:31:59.362Z,87.73
2023-03-06T17:42:03.214Z,87.68
2023-03-06T17:52:05.848Z,87.69
2023-03-06T18:02:07.414Z,89.33
2023-03-06T18:12:09.202Z,89.52
2023-03-06T18:22:10.754Z,90.36
2023-03-06T18:32:12.277Z,88.46
2023-03-06T18:42:14.027Z,89.19
2023-03-06T18:52:15.535Z,88.04
2023-03-06T19:02:17.053Z,87.67
2023-03-06T19:12:18.604Z,88.30
2023-03-06T19:22:19.999Z,88.33
2023-03-06T19:32:22.282Z,87.57
2023-03-06T19:42:23.986Z,88.03
2023-03-06T19:52:25.798Z,88.09
2023-03-06T20:02:27.866Z,87.30
2023-03-06T20:12:29.535Z,86.34
2023-03-06T20:22:30.918Z,86.76
2023-03-06T20:32:33.180Z,86.38
2023-03-06T20:42:34.681Z,86.30
2023-03-06T20:52:36.324Z,86.60
2023-03-06T21:02:37.791Z,86.42
2023-03-06T21:12:39.215Z,86.28
2023-03-06T21:22:40.632Z,86.23
2023-03-06T21:32:42.110Z,87.81
2023-03-06T21:42:43.521Z,89.10
2023-03-06T21:52:44.998Z,90.67
2023-03-06T22:02:47.055Z,94.39
2023-03-06T22:12:48.420Z,93.33
2023-03-06T22:22:49.885Z,98.04
2023-03-06T22:32:53.180Z,95.36
2023-03-06T22:42:54.726Z,97.68
2023-03-06T22:52:56.056Z,95.73
2023-03-06T23:02:57.505Z,96.10
2023-03-06T23:12:59.727Z,96.93
2023-03-06T23:23:01.194Z,96.98
2023-03-06T23:33:02.647Z,97.82
2023-03-06T23:43:04.171Z,97.30
2023-03-06T23:53:05.658Z,98.28
